Carbonear, Canada
Current Conditions -  °F | °C
As of 3:00 AM on Saturday 20 Dec 2014 (Local Time) from CYYT Reporting Station
Overcast Overcast  
Wind Chill: 24°   Ceiling: 1800
Heat Index: 32°   Visibility: 15mi
Dew Point: 30°   Wind: 10mph
Humidity: 93%   Direction: 360°N
Pressure: 29.88"   Gusts: 17mph
Location:  47.73°N, 53.25°W
Report Text: CYYT 200600Z 36009G15KT 15SM OVC018 00/M01 A2988 RMK SC8 PRESRR SLP123
Loading
Personal Weather Stations






























Interactive Weather Map New forecast layout! Learn more

10-Day Weather Forecast

Advertisements
Track Severe Weather on mobile